Time;durP1;ratioP1;P1;durP2;ratioP2;P2;SDS_P1;SDS_P2;PMS_P1;PMS_P2;Temp;Humidity;BMP_temperature;BMP_pressure;BME280_temperature;BME280_humidity;BME280_pressure;Samples;Min_cycle;Max_cycle;Signal;HPM_P1;HPM_P2
2023/04/29 00:00:05;;;;;;;18.13;11.02;;;12.60;99.90;;;;;;5088165;28;20181;-51
2023/04/29 00:02:31;;;;;;;16.80;11.63;;;;;;;;;;5072744;28;20170;-52
2023/04/29 00:04:57;;;;;;;13.57;8.63;;;12.50;99.90;;;;;;5072559;28;20168;-50
2023/04/29 00:07:23;;;;;;;13.52;9.70;;;;;;;;;;5072168;28;20604;-52
2023/04/29 00:09:49;;;;;;;17.40;10.80;;;;;;;;;;5072108;28;20648;-50
2023/04/29 00:12:15;;;;;;;15.82;9.70;;;12.50;99.90;;;;;;5072410;28;20198;-51
2023/04/29 00:14:42;;;;;;;17.40;10.65;;;;;;;;;;5072269;28;20201;-52
2023/04/29 00:17:08;;;;;;;20.60;10.88;;;12.40;99.90;;;;;;5072228;28;20161;-52
2023/04/29 00:19:33;;;;;;;14.50;10.23;;;12.30;99.90;;;;;;5072165;28;20174;-52
2023/04/29 00:22:00;;;;;;;17.42;11.77;;;;;;;;;;5072548;28;20158;-52
2023/04/29 00:24:26;;;;;;;17.05;10.75;;;12.30;99.90;;;;;;5071876;28;20158;-50
2023/04/29 00:26:51;;;;;;;18.60;12.15;;;12.30;99.90;;;;;;5071988;28;20690;-52
2023/04/29 00:29:17;;;;;;;20.30;13.05;;;12.30;99.90;;;;;;5081157;28;20188;-52
2023/04/29 00:31:43;;;;;;;21.33;12.20;;;12.30;99.90;;;;;;5091719;28;20184;-51
2023/04/29 00:34:09;;;;;;;17.88;12.55;;;12.20;99.90;;;;;;5092241;28;20205;-52
2023/04/29 00:36:35;;;;;;;20.67;13.18;;;;;;;;;;5092280;28;20228;-49
2023/04/29 00:39:02;;;;;;;17.80;12.13;;;12.20;99.90;;;;;;5091480;28;20165;-52
2023/04/29 00:41:29;;;;;;;23.23;12.88;;;12.30;99.90;;;;;;5072401;28;20249;-52
2023/04/29 00:43:55;;;;;;;21.58;13.13;;;12.30;99.90;;;;;;5071554;28;20227;-52
2023/04/29 00:46:21;;;;;;;21.60;14.05;;;;;;;;;;5071841;28;20731;-52
2023/04/29 00:48:47;;;;;;;22.38;12.38;;;;;;;;;;5071875;28;20174;-51
2023/04/29 00:51:13;;;;;;;20.70;13.43;;;12.30;99.90;;;;;;5071419;28;20162;-52
2023/04/29 00:53:39;;;;;;;23.70;14.82;;;12.30;99.90;;;;;;5071450;28;20206;-52
2023/04/29 00:56:06;;;;;;;23.90;14.55;;;12.20;99.90;;;;;;5071412;28;20227;-51
2023/04/29 00:58:34;;;;;;;25.70;15.73;;;12.20;99.90;;;;;;5074481;28;20196;-52
2023/04/29 01:01:01;;;;;;;27.67;16.20;;;12.20;99.90;;;;;;5092171;28;20169;-51
2023/04/29 01:03:30;;;;;;;25.58;15.05;;;12.20;99.90;;;;;;5091450;28;20668;-52
2023/04/29 01:06:22;;;;;;;26.83;15.88;;;12.20;99.90;;;;;;5091763;28;20173;-51
2023/04/29 01:08:59;;;;;;;26.85;16.77;;;12.20;99.90;;;;;;5091451;28;20588;-44
2023/04/29 01:11:33;;;;;;;24.23;14.80;;;12.20;99.90;;;;;;5091380;28;20204;-44
2023/04/29 01:14:02;;;;;;;27.60;15.60;;;12.10;99.90;;;;;;5091740;28;20258;-44
2023/04/29 01:16:41;;;;;;;27.33;14.60;;;12.00;99.90;;;;;;5091942;28;20214;-44
2023/04/29 01:19:24;;;;;;;27.95;18.30;;;12.00;99.90;;;;;;5091443;28;20252;-45
2023/04/29 01:21:50;;;;;;;31.35;18.83;;;12.00;99.90;;;;;;5091287;28;20675;-44
2023/04/29 01:24:16;;;;;;;29.63;18.23;;;11.90;99.90;;;;;;5091411;28;20165;-44
2023/04/29 01:26:56;;;;;;;35.15;18.63;;;11.80;99.90;;;;;;5091276;28;20173;-46
2023/04/29 01:29:34;;;;;;;33.15;21.02;;;11.90;99.90;;;;;;5078359;28;20185;-52
2023/04/29 01:32:16;;;;;;;30.35;19.58;;;11.80;99.90;;;;;;5071633;28;20528;-51
2023/04/29 01:35:20;;;;;;;32.80;19.52;;;11.80;99.90;;;;;;5071175;28;20178;-51
2023/04/29 01:37:56;;;;;;;33.55;21.40;;;11.80;99.90;;;;;;5016293;28;20187;-52
2023/04/29 01:40:25;;;;;;;35.10;21.85;;;11.80;99.90;;;;;;5071147;28;20176;-49
2023/04/29 01:43:00;;;;;;;32.83;21.90;;;11.80;99.90;;;;;;5071012;28;20625;-52
2023/04/29 01:45:27;;;;;;;33.40;21.70;;;11.80;99.90;;;;;;5070958;28;20520;-48
2023/04/29 01:47:56;;;;;;;35.55;22.55;;;11.80;99.90;;;;;;5070911;28;20158;-51
2023/04/29 01:50:22;;;;;;;39.60;23.45;;;;;;;;;;5070928;28;20162;-50
2023/04/29 01:52:48;;;;;;;38.53;24.17;;;11.80;99.90;;;;;;5070678;28;20202;-51
2023/04/29 01:55:14;;;;;;;37.40;23.90;;;;;;;;;;5070647;28;20166;-51
2023/04/29 01:57:39;;;;;;;37.58;23.13;;;11.80;99.90;;;;;;5070522;28;20170;-51
2023/04/29 02:00:06;;;;;;;38.67;24.45;;;11.80;99.90;;;;;;5089099;28;20173;-52
2023/04/29 02:02:31;;;;;;;37.00;22.65;;;11.70;99.90;;;;;;5091303;28;20165;-52
2023/04/29 02:04:57;;;;;;;36.90;24.08;;;11.70;99.90;;;;;;5091447;28;20222;-48
2023/04/29 02:07:22;;;;;;;38.42;25.13;;;11.70;99.90;;;;;;5090915;28;20639;-52
2023/04/29 02:09:48;;;;;;;43.58;25.15;;;11.70;99.90;;;;;;5090610;28;20211;-50
2023/04/29 02:12:14;;;;;;;47.70;28.02;;;11.70;99.90;;;;;;5090953;28;20625;-47
2023/04/29 02:14:39;;;;;;;45.70;27.15;;;11.70;99.90;;;;;;5091025;28;20621;-52
2023/04/29 02:17:05;;;;;;;50.00;27.73;;;11.70;99.90;;;;;;5090765;28;20252;-52
2023/04/29 02:19:31;;;;;;;50.97;27.92;;;;;;;;;;5091253;28;20170;-51
2023/04/29 02:21:57;;;;;;;50.38;29.80;;;;;;;;;;5088944;28;20177;-49
2023/04/29 02:24:22;;;;;;;48.85;29.10;;;11.60;99.90;;;;;;5090855;28;20221;-51
2023/04/29 02:26:48;;;;;;;54.53;31.27;;;11.60;99.90;;;;;;5090660;28;20530;-44
2023/04/29 02:29:13;;;;;;;56.50;32.75;;;11.60;99.90;;;;;;5090565;28;20165;-49
2023/04/29 02:31:39;;;;;;;56.88;31.40;;;;;;;;;;5090737;28;20172;-51
2023/04/29 02:34:05;;;;;;;55.00;30.10;;;11.60;99.90;;;;;;5090526;28;20212;-46
2023/04/29 02:36:30;;;;;;;51.97;28.95;;;11.50;99.90;;;;;;5090927;28;20238;-44
2023/04/29 02:38:56;;;;;;;64.82;31.88;;;11.40;99.90;;;;;;5090686;28;20244;-45
2023/04/29 02:41:22;;;;;;;50.45;29.95;;;11.40;99.90;;;;;;5090781;28;20161;-44
2023/04/29 02:43:48;;;;;;;58.45;31.35;;;;;;;;;;5090757;28;20652;-44
2023/04/29 02:46:15;;;;;;;60.72;34.13;;;11.40;99.90;;;;;;5090636;28;20645;-44
2023/04/29 02:48:41;;;;;;;66.40;31.42;;;11.30;99.90;;;;;;5092548;28;20204;-44
2023/04/29 02:51:06;;;;;;;64.70;32.25;;;11.20;99.90;;;;;;5094104;28;20200;-44
2023/04/29 02:53:32;;;;;;;66.30;35.22;;;;;;;;;;5076825;28;20209;-44
2023/04/29 02:55:58;;;;;;;65.28;33.65;;;11.20;99.90;;;;;;5074178;28;20170;-44
2023/04/29 02:58:24;;;;;;;68.50;34.85;;;;;;;;;;5073682;28;20642;-44
2023/04/29 03:00:50;;;;;;;68.40;35.22;;;11.20;99.90;;;;;;5073628;28;20193;-45
2023/04/29 03:03:16;;;;;;;74.93;36.85;;;11.20;99.90;;;;;;5073991;28;20204;-45
2023/04/29 03:05:42;;;;;;;76.05;35.00;;;;;;;;;;5073535;28;20533;-44
2023/04/29 03:08:09;;;;;;;60.70;30.90;;;11.10;99.90;;;;;;5073509;28;20268;-45
2023/04/29 03:10:35;;;;;;;63.72;33.30;;;;;;;;;;5073544;28;20296;-44
2023/04/29 03:13:00;;;;;;;73.90;37.67;;;11.10;99.90;;;;;;5073830;28;20289;-45
2023/04/29 03:15:26;;;;;;;74.95;38.08;;;11.10;99.90;;;;;;5073394;28;20169;-44
2023/04/29 03:17:51;;;;;;;80.43;36.97;;;11.10;99.90;;;;;;5073411;28;20247;-44
2023/04/29 03:20:18;;;;;;;75.82;35.67;;;11.10;99.90;;;;;;5073291;28;20194;-44
2023/04/29 03:22:43;;;;;;;78.65;36.10;;;11.10;99.90;;;;;;5086482;28;20264;-45
2023/04/29 03:25:09;;;;;;;73.13;33.95;;;11.10;99.90;;;;;;5093066;28;20605;-44
2023/04/29 03:27:35;;;;;;;71.28;30.98;;;11.00;99.90;;;;;;5092994;28;20580;-45
2023/04/29 03:30:01;;;;;;;77.10;33.85;;;11.10;99.90;;;;;;5093970;28;20173;-45
2023/04/29 03:32:27;;;;;;;79.55;32.78;;;;;;;;;;5093835;28;20165;-47
2023/04/29 03:34:54;;;;;;;67.82;30.55;;;11.00;99.90;;;;;;5093303;28;20593;-45
2023/04/29 03:37:19;;;;;;;68.88;30.35;;;10.90;99.90;;;;;;5093245;28;20158;-44
2023/04/29 03:39:45;;;;;;;71.47;30.70;;;;;;;;;;5093371;28;20172;-44
2023/04/29 03:42:11;;;;;;;60.30;24.63;;;10.80;99.90;;;;;;5093220;28;20188;-44
2023/04/29 03:44:36;;;;;;;63.50;28.33;;;10.80;99.90;;;;;;5093285;28;20177;-45
2023/04/29 03:47:02;;;;;;;67.30;27.60;;;10.70;99.90;;;;;;5093241;28;20231;-45
2023/04/29 03:49:28;;;;;;;50.05;24.33;;;10.70;99.90;;;;;;5093399;28;20525;-45
2023/04/29 03:51:53;;;;;;;60.22;29.33;;;10.70;99.90;;;;;;5092001;28;20173;-44
2023/04/29 03:54:19;;;;;;;54.90;25.30;;;10.70;99.90;;;;;;5092706;28;20205;-44
2023/04/29 03:56:44;;;;;;;52.05;26.83;;;10.60;99.90;;;;;;5092712;28;20166;-44
2023/04/29 03:59:10;;;;;;;51.33;24.88;;;10.70;99.90;;;;;;5092366;28;20161;-45
2023/04/29 04:01:36;;;;;;;62.50;27.10;;;;;;;;;;5092666;28;20170;-44
2023/04/29 04:04:02;;;;;;;53.60;25.95;;;;;;;;;;5092739;28;20180;-44
2023/04/29 04:06:28;;;;;;;54.40;26.92;;;10.50;99.90;;;;;;5093173;28;20166;-45
2023/04/29 04:08:53;;;;;;;47.55;24.35;;;;;;;;;;5092613;28;20180;-44
2023/04/29 04:11:19;;;;;;;52.42;25.48;;;;;;;;;;5092303;28;20209;-44
2023/04/29 04:13:45;;;;;;;50.95;22.75;;;10.50;99.90;;;;;;5092540;28;20217;-44
2023/04/29 04:16:11;;;;;;;45.08;24.38;;;10.50;99.90;;;;;;5092501;28;20165;-44
2023/04/29 04:18:37;;;;;;;54.92;24.00;;;10.50;99.90;;;;;;5092519;28;20238;-45
2023/04/29 04:21:07;;;;;;;52.65;24.13;;;10.60;99.90;;;;;;5090482;28;20162;-45
2023/04/29 04:23:33;;;;;;;47.08;23.80;;;;;;;;;;5072149;28;20260;-45
2023/04/29 04:25:59;;;;;;;57.65;29.90;;;10.60;99.90;;;;;;5072490;28;20193;-44
2023/04/29 04:28:25;;;;;;;50.00;24.55;;;;;;;;;;5072118;28;20170;-44
2023/04/29 04:30:51;;;;;;;52.00;25.08;;;10.60;99.90;;;;;;5071918;28;20170;-45
2023/04/29 04:33:17;;;;;;;43.78;23.38;;;10.60;99.90;;;;;;5071999;28;20283;-44
2023/04/29 04:35:42;;;;;;;47.47;23.77;;;10.50;99.90;;;;;;5071858;28;20220;-44
2023/04/29 04:38:10;;;;;;;42.85;21.65;;;10.50;99.90;;;;;;5071860;28;20170;-44
2023/04/29 04:40:36;;;;;;;45.08;22.90;;;;;;;;;;5072056;28;20174;-44
2023/04/29 04:43:02;;;;;;;43.15;21.40;;;;;;;;;;5071866;28;20576;-45
2023/04/29 04:45:29;;;;;;;37.22;19.25;;;10.50;99.90;;;;;;5072070;28;20166;-44
2023/04/29 04:47:54;;;;;;;38.30;19.92;;;10.40;99.90;;;;;;5071665;28;20174;-44
2023/04/29 04:50:20;;;;;;;38.17;20.13;;;;;;;;;;5071593;28;20166;-44
2023/04/29 04:52:46;;;;;;;44.67;22.92;;;10.50;99.90;;;;;;5087524;28;20246;-45
2023/04/29 04:55:11;;;;;;;35.33;17.30;;;10.50;99.90;;;;;;5073242;28;20635;-45
2023/04/29 04:57:37;;;;;;;35.97;19.17;;;10.50;99.90;;;;;;5071846;28;20169;-46
2023/04/29 05:00:04;;;;;;;37.50;18.95;;;10.60;99.90;;;;;;5071814;28;20616;-44
2023/04/29 05:02:29;;;;;;;39.15;20.17;;;10.50;99.90;;;;;;5072277;28;20170;-45
2023/04/29 05:04:55;;;;;;;32.72;17.25;;;10.50;99.90;;;;;;5071975;28;20172;-44
2023/04/29 05:07:21;;;;;;;40.67;19.00;;;10.50;99.90;;;;;;5071910;28;20208;-44
2023/04/29 05:09:47;;;;;;;31.73;18.08;;;;;;;;;;5071748;28;20162;-44
2023/04/29 05:12:12;;;;;;;33.05;17.67;;;10.50;99.90;;;;;;5071264;28;20166;-46
2023/04/29 05:14:38;;;;;;;33.08;17.90;;;10.50;99.90;;;;;;5071835;28;20185;-44
2023/04/29 05:17:04;;;;;;;33.88;19.25;;;10.60;99.90;;;;;;5071365;28;20215;-44
2023/04/29 05:19:29;;;;;;;30.58;16.10;;;10.60;99.90;;;;;;5071839;28;20162;-45
2023/04/29 05:21:55;;;;;;;25.08;14.90;;;10.50;99.90;;;;;;5071748;28;20315;-51
2023/04/29 05:24:20;;;;;;;26.45;16.27;;;10.50;99.90;;;;;;5071714;28;20247;-52
2023/04/29 05:26:46;;;;;;;25.42;15.32;;;10.50;99.90;;;;;;5071739;28;20174;-51
2023/04/29 05:29:12;;;;;;;36.92;19.75;;;10.60;99.90;;;;;;5071269;28;20170;-50
2023/04/29 05:31:38;;;;;;;26.38;16.00;;;;;;;;;;5071868;28;20172;-51
2023/04/29 05:34:04;;;;;;;30.85;15.93;;;10.60;99.90;;;;;;5071505;28;20206;-51
2023/04/29 05:36:30;;;;;;;23.23;14.40;;;10.60;99.90;;;;;;5072057;28;20592;-50
2023/04/29 05:38:56;;;;;;;22.88;14.52;;;10.70;99.90;;;;;;5071723;28;20260;-52
2023/04/29 05:41:23;;;;;;;22.77;14.13;;;10.60;99.90;;;;;;5071832;28;20197;-52
2023/04/29 05:43:48;;;;;;;27.42;14.65;;;10.70;99.90;;;;;;5071115;28;20180;-51
2023/04/29 05:46:15;;;;;;;24.50;14.73;;;10.70;99.90;;;;;;5071568;28;20174;-51
2023/04/29 05:48:40;;;;;;;23.20;14.35;;;10.70;99.90;;;;;;5071273;28;20583;-51
2023/04/29 05:51:06;;;;;;;24.08;14.82;;;;;;;;;;5071556;28;20166;-51
2023/04/29 05:53:32;;;;;;;24.65;14.27;;;10.80;99.90;;;;;;5071248;28;20745;-51
2023/04/29 05:55:58;;;;;;;22.98;14.82;;;;;;;;;;5071646;28;20526;-51
2023/04/29 05:58:27;;;;;;;21.50;14.75;;;10.80;99.90;;;;;;5071043;28;20166;-49
2023/04/29 06:00:53;;;;;;;21.73;13.80;;;;;;;;;;5071673;28;20546;-51
2023/04/29 06:03:18;;;;;;;22.40;14.35;;;10.90;99.90;;;;;;5071469;28;20166;-50
2023/04/29 06:05:44;;;;;;;24.25;15.30;;;10.90;99.90;;;;;;5070869;28;20174;-50
2023/04/29 06:08:09;;;;;;;24.08;14.23;;;11.00;99.90;;;;;;5071107;28;20162;-48
2023/04/29 06:10:35;;;;;;;23.65;14.43;;;11.00;99.90;;;;;;5070994;28;20249;-51
2023/04/29 06:13:01;;;;;;;24.20;15.85;;;;;;;;;;5071321;28;20241;-47
2023/04/29 06:15:27;;;;;;;23.83;14.98;;;11.00;99.90;;;;;;5071518;28;20244;-50
2023/04/29 06:17:53;;;;;;;22.88;14.02;;;11.10;99.90;;;;;;5070819;28;20265;-51
2023/04/29 06:20:19;;;;;;;22.48;14.35;;;11.00;99.90;;;;;;5071206;28;20175;-51
2023/04/29 06:22:44;;;;;;;24.30;14.90;;;11.10;99.90;;;;;;5073154;28;20178;-47
2023/04/29 06:25:10;;;;;;;22.35;13.55;;;;;;;;;;5074808;28;20172;-49
2023/04/29 06:27:36;;;;;;;28.80;15.73;;;;;;;;;;5090228;28;20170;-45
2023/04/29 06:30:02;;;;;;;24.75;15.05;;;11.10;99.90;;;;;;5074490;28;20273;-45
2023/04/29 06:32:28;;;;;;;22.45;12.65;;;;;;;;;;5074865;28;20692;-44
2023/04/29 06:34:53;;;;;;;24.30;14.35;;;11.10;99.90;;;;;;5074847;28;20174;-44
2023/04/29 06:37:19;;;;;;;23.27;16.17;;;11.20;99.90;;;;;;5074547;28;20162;-45
2023/04/29 06:39:44;;;;;;;18.15;11.88;;;11.20;99.90;;;;;;5074517;28;20192;-45
2023/04/29 06:42:10;;;;;;;21.55;14.13;;;11.20;99.90;;;;;;5074438;28;20166;-45
2023/04/29 06:44:35;;;;;;;24.83;15.05;;;11.20;99.90;;;;;;5074277;28;20176;-45
2023/04/29 06:47:01;;;;;;;25.33;16.00;;;;;;;;;;5074658;28;20170;-45
2023/04/29 06:49:27;;;;;;;22.92;14.32;;;11.30;99.90;;;;;;5074696;28;20654;-45
2023/04/29 06:51:53;;;;;;;22.02;15.45;;;11.40;99.90;;;;;;5074443;28;20185;-46
2023/04/29 06:54:18;;;;;;;21.17;14.90;;;11.50;99.90;;;;;;5074331;28;20202;-45
2023/04/29 06:56:44;;;;;;;19.35;13.95;;;11.50;99.90;;;;;;5074147;28;20165;-47
2023/04/29 06:59:11;;;;;;;24.17;15.57;;;11.60;99.90;;;;;;5074110;28;20245;-45
2023/04/29 07:01:37;;;;;;;22.08;14.55;;;11.70;99.90;;;;;;5074036;28;20170;-45
2023/04/29 07:04:03;;;;;;;20.67;13.90;;;11.60;99.90;;;;;;5074368;28;20177;-44
2023/04/29 07:06:29;;;;;;;21.52;12.70;;;11.70;99.90;;;;;;5074488;28;20174;-46
2023/04/29 07:08:55;;;;;;;19.23;13.75;;;11.80;99.90;;;;;;5074236;28;20687;-45
2023/04/29 07:11:20;;;;;;;19.40;12.63;;;11.80;99.90;;;;;;5074043;28;20789;-45
2023/04/29 07:13:46;;;;;;;20.92;13.55;;;11.90;99.90;;;;;;5074110;28;20691;-47
2023/04/29 07:16:20;;;;;;;21.58;13.13;;;12.00;99.90;;;;;;5074047;28;20529;-45
2023/04/29 07:18:46;;;;;;;17.95;12.32;;;12.10;99.90;;;;;;5073970;28;20185;-45
2023/04/29 07:21:12;;;;;;;22.00;14.98;;;12.20;99.90;;;;;;5073785;28;20630;-45
2023/04/29 07:23:37;;;;;;;20.38;13.35;;;12.20;99.90;;;;;;5074143;28;20177;-45
2023/04/29 07:26:14;;;;;;;19.77;12.32;;;12.10;99.90;;;;;;5074046;28;20173;-46
2023/04/29 07:28:40;;;;;;;16.10;10.90;;;12.00;99.90;;;;;;5073977;28;20170;-45
2023/04/29 07:31:06;;;;;;;18.25;10.57;;;11.80;99.90;;;;;;5073801;28;20166;-45
2023/04/29 07:33:33;;;;;;;17.20;10.02;;;11.70;99.90;;;;;;5073082;28;20213;-46
2023/04/29 07:35:59;;;;;;;17.67;11.40;;;11.70;99.90;;;;;;5074191;28;20495;-45
2023/04/29 07:38:25;;;;;;;13.02;10.02;;;11.70;99.90;;;;;;5073862;28;20170;-46
2023/04/29 07:40:50;;;;;;;15.68;11.45;;;11.60;99.90;;;;;;5073768;28;20262;-46
2023/04/29 07:43:16;;;;;;;14.73;10.80;;;11.60;99.90;;;;;;5073522;28;20178;-45
2023/04/29 07:45:41;;;;;;;15.38;10.45;;;11.60;99.90;;;;;;5073375;28;20177;-46
2023/04/29 07:48:07;;;;;;;15.88;10.60;;;11.60;99.90;;;;;;5073650;28;20522;-47
2023/04/29 07:50:36;;;;;;;17.13;10.27;;;11.60;99.90;;;;;;5073366;28;20568;-45
2023/04/29 07:53:02;;;;;;;15.43;11.30;;;11.50;99.90;;;;;;5073196;28;20204;-45
2023/04/29 07:55:30;;;;;;;16.90;11.43;;;11.50;99.90;;;;;;5073766;28;20231;-45
2023/04/29 07:57:57;;;;;;;16.63;12.18;;;11.50;99.90;;;;;;5073423;28;20165;-51
2023/04/29 08:00:23;;;;;;;13.80;9.50;;;11.50;99.90;;;;;;5073170;28;20235;-45
2023/04/29 08:02:55;;;;;;;12.32;9.10;;;11.50;99.90;;;;;;5073342;28;20174;-46
2023/04/29 08:05:22;;;;;;;25.50;10.32;;;11.50;99.90;;;;;;5073180;28;20166;-45
2023/04/29 08:07:48;;;;;;;17.00;11.25;;;11.50;99.90;;;;;;5072818;28;20184;-46
2023/04/29 08:10:15;;;;;;;17.70;11.30;;;11.50;99.90;;;;;;5072715;28;20213;-47
2023/04/29 08:12:40;;;;;;;14.88;9.20;;;11.40;99.90;;;;;;5072752;28;20316;-45
2023/04/29 08:15:06;;;;;;;17.38;10.65;;;11.50;99.90;;;;;;5072765;28;20241;-46
2023/04/29 08:17:32;;;;;;;16.23;11.40;;;11.50;99.90;;;;;;5072643;28;20166;-45
2023/04/29 08:19:58;;;;;;;16.25;9.98;;;11.50;99.90;;;;;;5073130;28;20227;-46
2023/04/29 08:22:23;;;;;;;17.65;10.38;;;11.60;99.90;;;;;;5072716;28;20528;-45
2023/04/29 08:24:49;;;;;;;16.23;10.30;;;11.70;99.90;;;;;;5072860;28;20180;-46
2023/04/29 08:27:15;;;;;;;14.13;10.10;;;11.80;99.90;;;;;;5072573;28;20639;-45
2023/04/29 08:29:41;;;;;;;13.68;10.10;;;11.90;99.90;;;;;;5072763;28;20177;-45
2023/04/29 08:32:06;;;;;;;13.48;9.70;;;12.00;99.90;;;;;;5072684;28;20166;-46
2023/04/29 08:34:35;;;;;;;14.48;10.20;;;;;;;;;;5072654;28;20201;-45
2023/04/29 08:37:01;;;;;;;12.60;9.40;;;;;;;;;;5072652;28;20222;-45
2023/04/29 08:39:29;;;;;;;14.80;9.43;;;12.20;99.90;;;;;;5073009;28;20575;-46
2023/04/29 08:41:56;;;;;;;11.90;8.63;;;12.30;99.90;;;;;;5072204;28;20689;-46
2023/04/29 08:44:22;;;;;;;14.52;10.02;;;12.20;99.90;;;;;;5072577;28;20178;-45
2023/04/29 08:46:48;;;;;;;11.80;9.35;;;12.30;99.90;;;;;;5072427;28;20170;-46
2023/04/29 08:49:14;;;;;;;11.95;9.13;;;12.50;99.90;;;;;;5072133;28;20184;-45
2023/04/29 08:51:39;;;;;;;13.30;9.18;;;12.60;99.90;;;;;;5072077;28;20158;-45
2023/04/29 08:54:06;;;;;;;15.25;10.23;;;12.80;99.90;;;;;;5072297;28;20216;-48
2023/04/29 08:56:32;;;;;;;11.75;9.30;;;12.80;99.90;;;;;;5072223;28;20573;-45
2023/04/29 08:59:00;;;;;;;12.65;8.57;;;12.70;99.90;;;;;;5072294;28;20176;-47
2023/04/29 09:01:27;;;;;;;12.35;8.73;;;12.70;99.90;;;;;;5072353;28;20162;-50
2023/04/29 09:04:03;;;;;;;12.02;9.43;;;13.00;99.90;;;;;;5071940;28;20166;-52
2023/04/29 09:06:32;;;;;;;12.35;9.40;;;13.30;99.90;;;;;;5072284;28;20248;-50
2023/04/29 09:08:59;;;;;;;14.55;10.10;;;13.40;99.90;;;;;;5072440;28;20177;-52
2023/04/29 09:11:26;;;;;;;13.65;9.98;;;13.50;99.90;;;;;;5071809;28;20213;-51
2023/04/29 09:13:57;;;;;;;17.98;11.20;;;13.50;99.90;;;;;;5071599;28;20626;-51
2023/04/29 09:16:23;;;;;;;12.43;9.45;;;13.50;99.90;;;;;;5071981;28;20285;-50
2023/04/29 09:18:50;;;;;;;10.50;9.38;;;13.60;99.90;;;;;;5071698;28;20257;-52
2023/04/29 09:21:27;;;;;;;12.80;10.80;;;13.80;99.90;;;;;;5071769;28;20162;-47
2023/04/29 09:23:58;;;;;;;13.50;10.65;;;13.80;99.90;;;;;;5071665;28;20244;-52
2023/04/29 09:26:24;;;;;;;13.45;10.00;;;13.70;99.90;;;;;;5071851;28;20162;-47
2023/04/29 09:29:08;;;;;;;12.52;9.57;;;13.60;99.90;;;;;;5071608;28;20174;-49
2023/04/29 09:31:39;;;;;;;12.57;10.38;;;13.60;99.90;;;;;;5071534;28;20657;-50
2023/04/29 09:34:05;;;;;;;11.32;9.05;;;13.30;99.90;;;;;;5071759;28;20221;-49
2023/04/29 09:36:39;;;;;;;13.95;10.40;;;13.20;99.90;;;;;;5071463;28;20176;-47
2023/04/29 09:39:11;;;;;;;15.98;10.93;;;13.10;99.90;;;;;;5071777;28;20212;-52
2023/04/29 09:41:42;;;;;;;14.32;11.85;;;13.00;99.90;;;;;;5071635;28;20154;-47
2023/04/29 09:44:09;;;;;;;14.98;10.98;;;13.00;99.90;;;;;;5071543;28;20157;-50
2023/04/29 09:46:36;;;;;;;13.27;10.45;;;12.90;99.90;;;;;;5071685;28;20446;-51
2023/04/29 09:49:05;;;;;;;14.00;9.57;;;12.90;99.90;;;;;;5071758;28;20576;-50
2023/04/29 09:51:31;;;;;;;12.80;9.50;;;12.90;99.90;;;;;;5071387;28;20244;-50
2023/04/29 09:53:58;;;;;;;12.05;9.43;;;12.80;99.90;;;;;;5090418;28;20291;-52
2023/04/29 09:56:27;;;;;;;14.52;10.48;;;12.80;99.90;;;;;;5090855;28;20222;-50
2023/04/29 09:58:54;;;;;;;14.60;10.40;;;12.70;99.90;;;;;;5095302;28;20259;-51
2023/04/29 10:01:22;;;;;;;14.90;10.90;;;12.60;99.90;;;;;;5095035;28;20622;-48
2023/04/29 10:03:50;;;;;;;16.33;10.93;;;12.60;99.90;;;;;;5095187;28;20518;-48
2023/04/29 10:06:17;;;;;;;15.15;10.85;;;12.50;99.90;;;;;;5095077;28;20524;-47
2023/04/29 10:08:45;;;;;;;18.67;12.82;;;12.50;99.90;;;;;;5094961;28;20698;-50
2023/04/29 10:11:11;;;;;;;18.63;12.52;;;12.50;99.90;;;;;;5094821;28;20229;-48
2023/04/29 10:13:41;;;;;;;15.95;12.57;;;12.40;99.90;;;;;;5095274;28;20688;-49
2023/04/29 10:16:17;;;;;;;17.73;12.82;;;12.40;99.90;;;;;;5094958;28;20226;-50
2023/04/29 10:18:51;;;;;;;21.15;13.65;;;12.30;99.90;;;;;;5094966;28;20169;-52
2023/04/29 10:21:20;;;;;;;19.98;14.27;;;12.40;99.90;;;;;;5095277;28;20656;-47
2023/04/29 10:23:47;;;;;;;19.23;13.20;;;12.30;99.90;;;;;;5095314;28;20178;-49
2023/04/29 10:26:15;;;;;;;17.02;12.57;;;12.30;99.90;;;;;;5094829;28;20163;-52
2023/04/29 10:28:44;;;;;;;18.35;12.80;;;12.30;99.90;;;;;;5094681;28;20244;-47
2023/04/29 10:31:12;;;;;;;18.80;13.43;;;12.30;99.90;;;;;;5095156;28;20170;-49
2023/04/29 10:33:41;;;;;;;24.42;13.25;;;12.30;99.90;;;;;;5095053;28;20205;-45
2023/04/29 10:36:08;;;;;;;21.33;14.27;;;12.20;99.90;;;;;;5094771;28;20192;-48
2023/04/29 10:38:46;;;;;;;21.40;14.98;;;12.30;99.90;;;;;;5094806;28;20196;-47
2023/04/29 10:41:34;;;;;;;23.58;15.32;;;12.40;99.90;;;;;;5095157;28;20176;-46
2023/04/29 10:44:00;;;;;;;24.73;15.70;;;12.40;99.90;;;;;;5084853;28;20264;-45
2023/04/29 10:46:26;;;;;;;21.95;14.40;;;12.30;99.90;;;;;;5095084;28;20193;-45
2023/04/29 10:49:02;;;;;;;23.17;16.05;;;12.40;99.90;;;;;;5094669;28;20196;-46
2023/04/29 10:51:30;;;;;;;23.10;15.00;;;12.50;99.90;;;;;;5095151;28;20173;-45
2023/04/29 10:54:11;;;;;;;23.60;16.85;;;12.50;99.90;;;;;;5095226;28;20211;-50
2023/04/29 10:56:48;;;;;;;20.73;15.50;;;12.50;99.90;;;;;;5094923;28;20195;-49
2023/04/29 10:59:21;;;;;;;22.33;16.60;;;12.70;99.90;;;;;;5094589;28;20177;-50
2023/04/29 11:01:47;;;;;;;28.30;16.92;;;;;;;;;;5094121;28;20180;-47
2023/04/29 11:04:14;;;;;;;27.17;16.88;;;12.90;99.90;;;;;;5093837;28;20169;-51
2023/04/29 11:06:43;;;;;;;22.75;16.17;;;12.90;99.90;;;;;;5093896;28;20210;-47
2023/04/29 11:09:11;;;;;;;28.50;17.50;;;12.80;99.90;;;;;;5091178;28;20173;-51
2023/04/29 11:11:41;;;;;;;26.80;18.40;;;12.90;99.90;;;;;;5092253;28;20236;-47
2023/04/29 11:14:10;;;;;;;26.38;18.08;;;12.90;99.90;;;;;;5092229;28;20760;-46
2023/04/29 11:16:38;;;;;;;25.65;17.45;;;;;;;;;;5092715;28;20173;-49
2023/04/29 11:19:06;;;;;;;29.65;18.05;;;12.80;99.90;;;;;;5092522;28;20168;-50
2023/04/29 11:21:36;;;;;;;28.80;18.77;;;12.80;99.90;;;;;;5092624;28;20200;-51
2023/04/29 11:24:05;;;;;;;25.35;16.98;;;12.70;99.90;;;;;;5092760;28;20168;-47
2023/04/29 11:26:31;;;;;;;31.48;18.45;;;12.80;99.90;;;;;;5094017;28;20210;-46
2023/04/29 11:28:57;;;;;;;31.27;18.10;;;12.80;99.90;;;;;;5094441;28;20567;-44
2023/04/29 11:31:29;;;;;;;25.85;17.58;;;12.80;99.90;;;;;;5093957;28;20637;-44
2023/04/29 11:33:55;;;;;;;28.52;18.90;;;12.90;99.90;;;;;;5094446;28;20568;-44
2023/04/29 11:36:21;;;;;;;27.48;17.08;;;12.80;99.90;;;;;;5093981;28;20165;-45
2023/04/29 11:38:46;;;;;;;29.25;18.58;;;12.80;99.90;;;;;;5093822;28;20169;-44
2023/04/29 11:41:14;;;;;;;27.17;17.40;;;12.70;99.90;;;;;;5094090;28;20162;-45
2023/04/29 11:43:40;;;;;;;25.10;16.58;;;12.70;99.90;;;;;;5094009;28;20169;-44
2023/04/29 11:46:15;;;;;;;27.70;17.20;;;12.70;99.90;;;;;;5093610;28;20244;-46
2023/04/29 11:48:48;;;;;;;26.48;17.00;;;12.70;99.90;;;;;;5093821;28;20173;-44
2023/04/29 11:51:15;;;;;;;29.20;18.20;;;13.00;99.90;;;;;;5093338;28;20165;-45
2023/04/29 11:53:40;;;;;;;34.03;21.85;;;13.20;99.90;;;;;;5093634;28;20632;-44
2023/04/29 11:56:08;;;;;;;34.95;21.50;;;13.10;99.90;;;;;;5093659;28;20229;-45
2023/04/29 11:58:33;;;;;;;33.92;19.90;;;13.10;99.90;;;;;;5093418;28;20162;-44
2023/04/29 12:00:59;;;;;;;33.58;21.02;;;13.00;99.90;;;;;;5093755;28;20705;-44
2023/04/29 12:03:25;;;;;;;32.90;20.30;;;13.10;99.90;;;;;;5094012;28;20173;-44
2023/04/29 12:05:52;;;;;;;33.85;21.42;;;13.10;99.90;;;;;;5093144;28;20541;-44
2023/04/29 12:08:21;;;;;;;41.03;25.13;;;13.10;99.90;;;;;;5093182;28;20165;-45
2023/04/29 12:10:48;;;;;;;49.25;27.58;;;13.20;99.90;;;;;;5092926;28;20608;-45
2023/04/29 12:13:17;;;;;;;71.03;39.70;;;13.40;99.90;;;;;;5093252;28;20249;-44
2023/04/29 12:15:47;;;;;;;66.70;43.30;;;13.60;99.90;;;;;;5092924;28;20222;-44
2023/04/29 12:18:13;;;;;;;73.57;45.28;;;13.90;99.90;;;;;;5093213;28;20230;-45
2023/04/29 12:20:39;;;;;;;62.35;39.72;;;14.00;99.90;;;;;;5092622;28;20629;-45
2023/04/29 12:23:21;;;;;;;61.22;37.33;;;14.30;99.90;;;;;;5092976;28;20637;-44
2023/04/29 12:25:52;;;;;;;47.17;32.25;;;14.40;99.90;;;;;;5092676;28;20173;-44
2023/04/29 12:28:18;;;;;;;43.47;30.38;;;14.60;99.90;;;;;;5092907;28;20158;-46
2023/04/29 12:30:48;;;;;;;47.40;31.92;;;14.70;99.90;;;;;;5092861;28;20520;-44
2023/04/29 12:33:26;;;;;;;41.00;28.23;;;14.80;99.90;;;;;;5092895;28;20192;-46
2023/04/29 12:35:55;;;;;;;41.13;28.95;;;14.90;99.90;;;;;;5092934;28;20213;-44
2023/04/29 12:38:35;;;;;;;43.28;30.23;;;14.70;99.90;;;;;;5092913;28;20197;-44
2023/04/29 12:41:00;;;;;;;47.13;30.02;;;14.80;99.90;;;;;;5092573;28;20313;-49